createdAt,value
2019-01-23T00:00:44.426Z,21.9
2019-01-23T00:01:33.648Z,22
2019-01-23T00:02:23.956Z,22
2019-01-23T00:03:13.747Z,22.1
2019-01-23T00:04:03.514Z,22.1
2019-01-23T00:04:54.335Z,22
2019-01-23T00:05:44.180Z,22
2019-01-23T00:06:33.128Z,22
2019-01-23T00:07:24.346Z,21.9
2019-01-23T00:08:14.353Z,21.9
2019-01-23T00:09:03.867Z,21.9
2019-01-23T00:09:54.759Z,21.9
2019-01-23T00:10:44.822Z,21.9
2019-01-23T00:11:33.514Z,21.9
2019-01-23T00:12:24.964Z,21.9
2019-01-23T00:13:14.960Z,21.9
2019-01-23T00:14:05.080Z,21.9
2019-01-23T00:14:54.832Z,21.9
2019-01-23T00:15:45.165Z,21.9
2019-01-23T00:16:34.374Z,21.9
2019-01-23T00:17:24.149Z,21.9
2019-01-23T00:18:14.214Z,22
2019-01-23T00:19:04.871Z,22
2019-01-23T00:19:54.589Z,22.1
2019-01-23T00:20:45.239Z,22.1
2019-01-23T00:21:35.546Z,22.1
2019-01-23T00:22:25.601Z,22.1
2019-01-23T00:23:15.375Z,22.1
2019-01-23T00:24:05.435Z,22.1
2019-01-23T00:24:54.949Z,22.1
2019-01-23T00:25:45.296Z,22.1
2019-01-23T00:26:34.503Z,22.1
2019-01-23T00:27:25.578Z,22.1
2019-01-23T00:28:15.782Z,22.1
2019-01-23T00:29:04.983Z,22.1
2019-01-23T00:29:55.828Z,22.1
2019-01-23T00:30:46.436Z,22.1
2019-01-23T00:31:35.681Z,22.1
2019-01-23T00:32:25.738Z,22.1
2019-01-23T00:33:16.053Z,22.1
2019-01-23T00:34:05.583Z,22.1
2019-01-23T00:34:55.919Z,22.1
2019-01-23T00:35:46.031Z,22.1
2019-01-23T00:36:36.076Z,22
2019-01-23T00:37:26.408Z,22
2019-01-23T00:38:16.695Z,22
2019-01-23T00:39:06.490Z,22
2019-01-23T00:40:10.925Z,22
2019-01-23T00:40:46.631Z,22
2019-01-23T00:41:36.379Z,22
2019-01-23T00:42:27.321Z,22
2019-01-23T00:43:16.490Z,22
2019-01-23T00:44:07.435Z,22.1
2019-01-23T00:44:57.160Z,22.1
2019-01-23T00:45:46.700Z,22.1
2019-01-23T00:46:35.625Z,22.1
2019-01-23T00:47:27.340Z,22.2
2019-01-23T00:48:17.403Z,22.2
2019-01-23T00:49:06.685Z,22.3
2019-01-23T00:49:57.217Z,22.3
2019-01-23T00:50:47.645Z,22.3
2019-01-23T00:51:36.810Z,22.3
2019-01-23T00:52:27.937Z,22.3
2019-01-23T00:53:17.182Z,22.3
2019-01-23T00:54:07.245Z,22.3
2019-01-23T00:54:57.270Z,22.3
2019-01-23T00:55:46.860Z,22.3
2019-01-23T00:56:37.705Z,22.3
2019-01-23T00:57:27.454Z,22.3
2019-01-23T00:58:17.784Z,22.3
2019-01-23T00:59:07.572Z,22.3
2019-01-23T00:59:57.909Z,22.3
2019-01-23T01:00:48.266Z,22.2
2019-01-23T01:01:37.509Z,22.2
2019-01-23T01:02:28.172Z,22.2
2019-01-23T01:03:18.417Z,22.1
2019-01-23T01:04:08.998Z,22.1
2019-01-23T01:04:57.704Z,22.1
2019-01-23T01:05:48.041Z,22.1
2019-01-23T01:06:37.556Z,22
2019-01-23T01:07:28.433Z,22.1
2019-01-23T01:08:18.496Z,22.1
2019-01-23T01:09:08.275Z,22.1
2019-01-23T01:09:57.768Z,22.1
2019-01-23T01:10:48.490Z,22.1
2019-01-23T01:11:38.743Z,22.2
2019-01-23T01:12:28.281Z,22.2
2019-01-23T01:13:19.103Z,22.2
2019-01-23T01:14:08.664Z,22.3
2019-01-23T01:14:59.226Z,22.3
2019-01-23T01:15:48.773Z,22.3
2019-01-23T01:16:39.100Z,22.3
2019-01-23T01:17:28.358Z,22.3
2019-01-23T01:18:18.433Z,22.3
2019-01-23T01:19:09.013Z,22.3
2019-01-23T01:19:59.303Z,22.3
2019-01-23T01:20:49.133Z,22.3
2019-01-23T01:21:38.809Z,22.3
2019-01-23T01:22:28.708Z,22.3
2019-01-23T01:23:19.602Z,22.3
2019-01-23T01:24:08.268Z,22.2
2019-01-23T01:24:59.443Z,22.2
2019-01-23T01:25:49.760Z,22.1
2019-01-23T01:26:39.545Z,22.1
2019-01-23T01:27:28.725Z,22.1
2019-01-23T01:28:19.400Z,22.1
2019-01-23T01:29:09.434Z,22.1
2019-01-23T01:29:58.935Z,22.1
2019-01-23T01:30:49.833Z,22.1
2019-01-23T01:31:39.900Z,22
2019-01-23T01:32:29.422Z,22
2019-01-23T01:33:18.895Z,22
2019-01-23T01:34:10.075Z,22
2019-01-23T01:34:59.575Z,22
2019-01-23T01:35:49.347Z,22.1
2019-01-23T01:36:40.052Z,22
2019-01-23T01:37:30.332Z,22.1
2019-01-23T01:38:19.229Z,22.1
2019-01-23T01:39:09.867Z,22.1
2019-01-23T01:39:59.924Z,22.1
2019-01-23T01:40:50.507Z,22.1
2019-01-23T01:41:40.604Z,22.1
2019-01-23T01:42:29.259Z,22.1
2019-01-23T01:43:20.421Z,22.2
2019-01-23T01:44:10.736Z,22.2
2019-01-23T01:45:00.029Z,22.3
2019-01-23T01:45:50.314Z,22.2
2019-01-23T01:46:39.526Z,22.2
2019-01-23T01:47:31.244Z,22.3
2019-01-23T01:48:20.774Z,22.3
2019-01-23T01:49:10.826Z,22.3
2019-01-23T01:50:00.958Z,22.2
2019-01-23T01:50:50.676Z,22.1
2019-01-23T01:51:41.335Z,22.1
2019-01-23T01:52:30.214Z,22.1
2019-01-23T01:53:20.861Z,22.1
2019-01-23T01:54:10.894Z,22.1
2019-01-23T01:55:00.648Z,22.1
2019-01-23T01:55:51.288Z,22.1
2019-01-23T01:56:41.605Z,22.1
2019-01-23T01:57:31.668Z,22.1
2019-01-23T01:58:21.913Z,22.1
2019-01-23T01:59:11.274Z,22.1
2019-01-23T02:00:01.653Z,22
2019-01-23T02:00:51.550Z,22
2019-01-23T02:01:42.433Z,22
2019-01-23T02:02:32.825Z,22
2019-01-23T02:03:22.510Z,22
2019-01-23T02:04:13.119Z,22
2019-01-23T02:05:02.939Z,22
2019-01-23T02:05:52.445Z,22.1
2019-01-23T02:06:42.238Z,22.1
2019-01-23T02:07:32.576Z,22.1
2019-01-23T02:08:22.347Z,22.1
2019-01-23T02:09:12.438Z,22.1
2019-01-23T02:10:03.082Z,22.1
2019-01-23T02:10:53.074Z,22.1
2019-01-23T02:11:43.137Z,22
2019-01-23T02:12:32.612Z,22
2019-01-23T02:13:22.964Z,21.9
2019-01-23T02:14:13.569Z,21.9
2019-01-23T02:15:02.552Z,21.9
2019-01-23T02:15:53.167Z,21.9
2019-01-23T02:16:42.646Z,21.9
2019-01-23T02:17:33.507Z,21.9
2019-01-23T02:18:23.304Z,21.9
2019-01-23T02:19:13.083Z,21.9
2019-01-23T02:20:03.192Z,21.9
2019-01-23T02:20:53.749Z,21.9
2019-01-23T02:21:44.107Z,22
2019-01-23T02:22:33.311Z,22
2019-01-23T02:23:24.192Z,22.1
2019-01-23T02:24:12.416Z,22.1
2019-01-23T02:25:02.934Z,22.1
2019-01-23T02:25:54.103Z,22.1
2019-01-23T02:26:43.360Z,22.2
2019-01-23T02:27:33.921Z,22.2
2019-01-23T02:28:24.019Z,22.3
2019-01-23T02:29:16.378Z,22.3
2019-01-23T02:30:04.027Z,22.3
2019-01-23T02:30:53.656Z,22.3
2019-01-23T02:31:44.028Z,22.3
2019-01-23T02:32:33.531Z,22.3
2019-01-23T02:33:24.660Z,22.3
2019-01-23T02:34:13.384Z,22.3
2019-01-23T02:35:03.018Z,22.2
2019-01-23T02:35:54.360Z,22.2
2019-01-23T02:36:44.412Z,22.1
2019-01-23T02:37:33.382Z,22.1
2019-01-23T02:38:24.773Z,22.1
2019-01-23T02:39:13.738Z,22.1
2019-01-23T02:40:04.938Z,22.1
2019-01-23T02:40:53.865Z,22.1
2019-01-23T02:41:44.491Z,22.1
2019-01-23T02:42:34.808Z,22
2019-01-23T02:43:24.572Z,22
2019-01-23T02:44:14.661Z,22
2019-01-23T02:45:05.021Z,22
2019-01-23T02:45:54.795Z,22
2019-01-23T02:46:45.362Z,22
2019-01-23T02:47:34.085Z,22
2019-01-23T02:48:25.702Z,22.1
2019-01-23T02:49:15.577Z,22.1
2019-01-23T02:50:05.030Z,22.1
2019-01-23T02:50:54.872Z,22.1
2019-01-23T02:51:45.643Z,22.1
2019-01-23T02:52:35.821Z,22.1
2019-01-23T02:53:25.272Z,22.1
2019-01-23T02:54:15.568Z,22.2
2019-01-23T02:55:05.588Z,22.2
2019-01-23T02:55:55.160Z,22.2
2019-01-23T02:56:44.717Z,22.3
2019-01-23T02:57:35.561Z,22.2
2019-01-23T02:58:25.337Z,22.3
2019-01-23T02:59:23.008Z,22.3
2019-01-23T03:00:05.460Z,22.3
2019-01-23T03:00:56.304Z,22.3
2019-01-23T03:01:45.344Z,22.3
2019-01-23T03:02:35.917Z,22.2
2019-01-23T03:03:26.197Z,22.2
2019-01-23T03:04:16.264Z,22.1
2019-01-23T03:05:05.790Z,22.1
2019-01-23T03:08:39.654Z,22
2019-01-23T03:09:29.008Z,22
2019-01-23T03:10:19.344Z,22
2019-01-23T03:11:09.368Z,21.9
2019-01-23T03:11:59.673Z,22
2019-01-23T03:12:49.791Z,21.9
2019-01-23T03:13:39.776Z,22
2019-01-23T03:14:29.573Z,22
2019-01-23T03:15:19.370Z,22
2019-01-23T03:16:10.046Z,22
2019-01-23T03:16:59.198Z,22
2019-01-23T03:17:49.325Z,22.1
2019-01-23T03:18:39.871Z,22.1
2019-01-23T03:19:29.934Z,22.1
2019-01-23T03:20:19.524Z,22.1
2019-01-23T03:21:10.313Z,22.1
2019-01-23T03:22:00.087Z,22.1
2019-01-23T03:22:50.425Z,22.2
2019-01-23T03:23:40.216Z,22.2
2019-01-23T03:24:30.262Z,22.3
2019-01-23T03:25:20.789Z,22.3
2019-01-23T03:26:10.315Z,22.3
2019-01-23T03:27:00.891Z,22.3
2019-01-23T03:27:51.285Z,22.3
2019-01-23T03:28:41.027Z,22.3
2019-01-23T03:29:32.007Z,22.3
2019-01-23T03:30:21.815Z,22.3
2019-01-23T03:31:11.478Z,22.2
2019-01-23T03:32:01.768Z,22.2
2019-01-23T03:32:52.058Z,22.2
2019-01-23T03:33:41.109Z,22.2
2019-01-23T03:34:31.705Z,22.1
2019-01-23T03:35:21.251Z,22.1
2019-01-23T03:36:11.282Z,22.1
2019-01-23T03:37:01.590Z,22.1
2019-01-23T03:37:51.383Z,22.1
2019-01-23T03:38:41.729Z,22.1
2019-01-23T03:39:31.462Z,22.1
2019-01-23T03:40:21.626Z,22
2019-01-23T03:41:11.887Z,22
2019-01-23T03:42:02.198Z,22
2019-01-23T03:42:52.032Z,22
2019-01-23T03:43:42.079Z,22
2019-01-23T03:44:32.475Z,22
2019-01-23T03:45:22.023Z,22.1
2019-01-23T03:46:12.533Z,22.1
2019-01-23T03:47:02.027Z,22.1
2019-01-23T03:47:51.781Z,22.1
2019-01-23T03:48:42.098Z,22.1
2019-01-23T03:49:32.470Z,22.1
2019-01-23T03:50:22.836Z,22.2
2019-01-23T03:51:12.558Z,22.2
2019-01-23T03:52:02.953Z,22.2
2019-01-23T03:52:53.019Z,22.3
2019-01-23T03:53:42.751Z,22.3
2019-01-23T03:54:33.089Z,22.3
2019-01-23T03:55:22.848Z,22.3
2019-01-23T03:56:13.168Z,22.3
2019-01-23T03:57:03.215Z,22.2
2019-01-23T03:57:53.021Z,22.2
2019-01-23T03:58:42.820Z,22.2
2019-01-23T03:59:39.282Z,22.1
2019-01-23T04:00:24.833Z,22.1
2019-01-23T04:01:13.608Z,22.1
2019-01-23T04:02:03.597Z,22.1
2019-01-23T04:02:53.488Z,22
2019-01-23T04:03:42.860Z,22
2019-01-23T04:04:32.954Z,22
2019-01-23T04:05:23.400Z,22
2019-01-23T04:06:13.847Z,22.1
2019-01-23T04:07:03.397Z,22.1
2019-01-23T04:07:53.163Z,22.1
2019-01-23T04:08:44.020Z,22.1
2019-01-23T04:09:33.830Z,22.1
2019-01-23T04:10:23.640Z,22.1
2019-01-23T04:11:13.637Z,22.1
2019-01-23T04:12:04.218Z,22.1
2019-01-23T04:12:53.560Z,22.2
2019-01-23T04:13:44.170Z,22.2
2019-01-23T04:14:33.597Z,22.3
2019-01-23T04:15:24.222Z,22.3
2019-01-23T04:16:14.247Z,22.3
2019-01-23T04:17:04.294Z,22.2
2019-01-23T04:17:54.399Z,22.2
2019-01-23T04:18:44.179Z,22.2
2019-01-23T04:19:34.760Z,22.2
2019-01-23T04:20:24.079Z,22.2
2019-01-23T04:21:14.019Z,22.1
2019-01-23T04:22:04.702Z,22.1
2019-01-23T04:22:54.742Z,22.1
2019-01-23T04:23:45.061Z,22.1
2019-01-23T04:24:35.116Z,22.1
2019-01-23T04:25:25.103Z,22.1
2019-01-23T04:26:14.428Z,22.1
2019-01-23T04:27:04.754Z,22
2019-01-23T04:27:54.786Z,22
2019-01-23T04:28:44.828Z,22
2019-01-23T04:29:42.517Z,21.9
2019-01-23T04:30:24.546Z,21.9
2019-01-23T04:31:16.158Z,21.9
2019-01-23T04:32:05.081Z,21.9
2019-01-23T04:32:55.581Z,22
2019-01-23T04:33:45.802Z,22
2019-01-23T04:34:34.695Z,22
2019-01-23T04:35:25.366Z,22
2019-01-23T04:36:15.605Z,22.1
2019-01-23T04:37:06.053Z,22.1
2019-01-23T04:37:55.803Z,22.1
2019-01-23T04:38:45.843Z,22.1
2019-01-23T04:39:35.862Z,22.1
2019-01-23T04:40:25.982Z,22.1
2019-01-23T04:41:15.698Z,22.2
2019-01-23T04:42:06.384Z,22.2
2019-01-23T04:42:56.130Z,22.2
2019-01-23T04:43:46.443Z,22.3
2019-01-23T04:44:36.197Z,22.3
2019-01-23T04:45:25.985Z,22.3
2019-01-23T04:46:16.055Z,22.2
2019-01-23T04:47:06.372Z,22.2
2019-01-23T04:47:56.486Z,22.2
2019-01-23T04:48:46.490Z,22.2
2019-01-23T04:49:38.317Z,22.2
2019-01-23T04:50:26.890Z,22.1
2019-01-23T04:51:16.377Z,22.1
2019-01-23T04:52:06.998Z,22.1
2019-01-23T04:52:56.768Z,22.1
2019-01-23T04:53:46.538Z,22.1
2019-01-23T04:54:36.868Z,22.1
2019-01-23T04:55:26.424Z,22.1
2019-01-23T04:56:16.722Z,22
2019-01-23T04:57:06.609Z,22
2019-01-23T04:57:56.904Z,22
2019-01-23T04:58:46.918Z,22
2019-01-23T04:59:36.981Z,22
2019-01-23T05:00:27.025Z,22.1
2019-01-23T05:01:17.864Z,22.1
2019-01-23T05:02:07.802Z,22.1
2019-01-23T05:02:58.131Z,22.1
2019-01-23T05:03:47.274Z,22.1
2019-01-23T05:04:37.287Z,22.1
2019-01-23T05:05:27.649Z,22.1
2019-01-23T05:06:17.732Z,22.1
2019-01-23T05:07:08.017Z,22.1
2019-01-23T05:07:57.866Z,22.2
2019-01-23T05:08:47.871Z,22.2
2019-01-23T05:09:37.903Z,22.3
2019-01-23T05:10:27.456Z,22.3
2019-01-23T05:11:17.504Z,22.3
2019-01-23T05:12:07.583Z,22.3
2019-01-23T05:12:57.910Z,22.3
2019-01-23T05:13:48.462Z,22.3
2019-01-23T05:14:39.231Z,22.3
2019-01-23T05:15:28.316Z,22.3
2019-01-23T05:16:18.651Z,22.3
2019-01-23T05:17:08.166Z,22.3
2019-01-23T05:17:58.791Z,22.3
2019-01-23T05:18:48.255Z,22.2
2019-01-23T05:19:38.578Z,22.2
2019-01-23T05:20:28.998Z,22.2
2019-01-23T05:21:20.358Z,22.2
2019-01-23T05:22:09.047Z,22.1
2019-01-23T05:22:58.838Z,22
2019-01-23T05:23:49.149Z,21.8
2019-01-23T05:24:39.323Z,21.7
2019-01-23T05:25:29.339Z,21.5
2019-01-23T05:26:18.783Z,21.4
2019-01-23T05:27:09.404Z,21.3
2019-01-23T05:27:59.180Z,21.1
2019-01-23T05:28:49.503Z,21
2019-01-23T05:29:39.563Z,20.9
2019-01-23T05:30:29.100Z,20.8
2019-01-23T05:31:19.158Z,20.8
2019-01-23T05:32:10.130Z,20.8
2019-01-23T05:32:59.842Z,20.7
2019-01-23T05:33:49.565Z,20.6
2019-01-23T05:34:39.969Z,20.6
2019-01-23T05:35:29.767Z,20.6
2019-01-23T05:36:20.010Z,20.6
2019-01-23T05:37:09.785Z,20.6
2019-01-23T05:37:59.292Z,20.6
2019-01-23T05:38:49.340Z,20.7
2019-01-23T05:39:39.675Z,20.8
2019-01-23T05:40:30.305Z,20.9
2019-01-23T05:41:19.843Z,20.9
2019-01-23T05:42:09.178Z,21
2019-01-23T05:46:19.157Z,21.1
2019-01-23T05:47:09.230Z,21
2019-01-23T05:48:00.297Z,20.9
2019-01-23T05:48:49.904Z,20.9
2019-01-23T05:49:39.699Z,21
2019-01-23T05:50:29.466Z,21
2019-01-23T05:51:19.789Z,21
2019-01-23T05:52:09.272Z,21
2019-01-23T05:52:59.883Z,21
2019-01-23T05:53:49.961Z,21.1
2019-01-23T05:57:10.664Z,21.2
2019-01-23T05:58:00.531Z,21.2
2019-01-23T05:58:50.044Z,21.3
2019-01-23T05:59:40.341Z,21.3
2019-01-23T06:00:30.624Z,21.3
2019-01-23T06:01:19.906Z,21.3
2019-01-23T06:02:10.778Z,21.3
2019-01-23T06:02:59.839Z,21.3
2019-01-23T06:03:49.876Z,21.2
2019-01-23T06:04:40.693Z,21.3
2019-01-23T06:06:37.813Z,21.3
2019-01-23T06:07:26.983Z,21.3
2019-01-23T06:08:18.474Z,21.3
2019-01-23T06:09:08.203Z,21.3
2019-01-23T06:09:59.037Z,21.3
2019-01-23T06:10:49.269Z,21.2
2019-01-23T06:11:39.320Z,21.2
2019-01-23T06:12:29.443Z,21.2
2019-01-23T06:17:29.457Z,21.1
2019-01-23T06:18:19.795Z,21.1
2019-01-23T06:19:10.139Z,21.1
2019-01-23T06:20:00.194Z,21.1
2019-01-23T06:20:50.282Z,21.1
2019-01-23T06:21:40.022Z,21.1
2019-01-23T06:22:30.084Z,21.1
2019-01-23T06:23:19.872Z,21.1
2019-01-23T06:24:10.221Z,21.1
2019-01-23T06:28:20.769Z,21.2
2019-01-23T06:29:09.444Z,21.2
2019-01-23T06:30:00.718Z,21.2
2019-01-23T06:30:50.396Z,21.3
2019-01-23T06:31:41.938Z,21.3
2019-01-23T06:32:30.239Z,21.3
2019-01-23T06:33:21.230Z,21.3
2019-01-23T06:34:11.137Z,21.3
2019-01-23T06:35:01.403Z,21.3
2019-01-23T06:35:51.464Z,21.4
2019-01-23T06:36:41.008Z,21.3
2019-01-23T06:37:31.374Z,21.3
2019-01-23T06:38:21.436Z,21.3
2019-01-23T06:39:11.203Z,21.3
2019-01-23T06:40:01.247Z,21.3
2019-01-23T06:40:51.038Z,21.3
2019-01-23T06:41:41.833Z,21.3
2019-01-23T06:42:31.906Z,21.3
2019-01-23T06:43:23.141Z,21.2
2019-01-23T06:44:11.528Z,21.2
2019-01-23T06:45:01.905Z,21.2
2019-01-23T06:49:12.133Z,21.1
2019-01-23T06:50:04.178Z,21.1
2019-01-23T06:50:51.780Z,21.1
2019-01-23T06:51:42.848Z,21.1
2019-01-23T06:54:11.948Z,21.2
2019-01-23T06:55:02.319Z,21.2
2019-01-23T06:55:53.101Z,21.3
2019-01-23T06:56:42.695Z,21.3
2019-01-23T06:57:32.443Z,21.4
2019-01-23T06:58:22.710Z,21.4
2019-01-23T06:59:13.317Z,21.4
2019-01-23T07:00:02.925Z,21.5
2019-01-23T07:00:52.663Z,21.5
2019-01-23T07:01:43.000Z,21.6
2019-01-23T07:02:33.539Z,21.6
2019-01-23T07:03:22.649Z,21.6
2019-01-23T07:04:13.107Z,21.6
2019-01-23T07:06:39.689Z,21.6
2019-01-23T07:07:29.534Z,21.7
2019-01-23T07:08:18.807Z,21.7
2019-01-23T07:09:09.639Z,21.7
2019-01-23T07:09:59.429Z,21.7
2019-01-23T07:10:49.503Z,21.7
2019-01-23T07:11:39.009Z,21.6
2019-01-23T07:12:29.821Z,21.6
2019-01-23T07:13:19.398Z,21.6
2019-01-23T07:14:09.947Z,21.4
2019-01-23T07:14:59.828Z,21.4
2019-01-23T07:15:50.086Z,21.3
2019-01-23T07:16:40.384Z,21.3
2019-01-23T07:17:30.154Z,21.2
2019-01-23T07:18:19.946Z,21.2
2019-01-23T07:27:31.034Z,21.2
2019-01-23T07:28:20.630Z,21.2
2019-01-23T07:29:11.231Z,21.2
2019-01-23T07:30:00.791Z,21.2
2019-01-23T07:33:20.785Z,21.1
2019-01-23T07:34:11.107Z,21.1
2019-01-23T07:35:01.268Z,21.1
2019-01-23T07:35:51.251Z,21
2019-01-23T07:36:41.055Z,21
2019-01-23T07:37:31.318Z,21
2019-01-23T07:38:21.580Z,21
2019-01-23T07:39:11.151Z,21
2019-01-23T07:40:01.702Z,21
2019-01-23T07:40:51.483Z,21.1
2019-01-23T07:41:42.083Z,21.1
2019-01-23T07:42:31.863Z,21.1
2019-01-23T07:43:21.913Z,21.1
2019-01-23T07:46:42.417Z,21.2
2019-01-23T07:47:31.376Z,21.2
2019-01-23T07:48:23.852Z,21.3
2019-01-23T07:49:12.639Z,21.3
2019-01-23T07:50:02.381Z,21.3
2019-01-23T07:50:52.206Z,21.3
2019-01-23T07:51:42.796Z,21.3
2019-01-23T07:52:32.284Z,21.3
2019-01-23T07:53:22.316Z,21.3
2019-01-23T07:54:12.924Z,21.3
2019-01-23T07:55:03.109Z,21.3
2019-01-23T07:55:52.768Z,21.3
2019-01-23T07:56:43.136Z,21.3
2019-01-23T07:57:32.626Z,21.3
2019-01-23T07:58:23.264Z,21.3
2019-01-23T07:59:14.223Z,21.3
2019-01-23T08:00:03.170Z,21.2
2019-01-23T08:00:53.111Z,21.2
2019-01-23T08:01:42.889Z,21.2
2019-01-23T08:02:33.245Z,21.2
2019-01-23T08:06:43.246Z,21.1
2019-01-23T08:07:33.553Z,21.1
2019-01-23T08:11:43.568Z,21.2
2019-01-23T08:12:34.177Z,21.2
2019-01-23T08:13:25.150Z,21.2
2019-01-23T08:14:13.770Z,21.3
2019-01-23T08:15:04.350Z,21.3
2019-01-23T08:15:53.564Z,21.3
2019-01-23T08:16:44.605Z,21.3
2019-01-23T08:17:39.644Z,21.3
2019-01-23T08:18:24.292Z,21.4
2019-01-23T08:19:14.616Z,21.4
2019-01-23T08:20:05.974Z,21.4
2019-01-23T08:20:54.760Z,21.4
2019-01-23T08:21:44.795Z,21.4
2019-01-23T08:22:34.273Z,21.3
2019-01-23T08:23:24.914Z,21.3
2019-01-23T08:24:14.709Z,21.3
2019-01-23T08:25:05.106Z,21.3
2019-01-23T08:25:55.142Z,21.3
2019-01-23T08:26:44.607Z,21.3
2019-01-23T08:27:35.204Z,21.3
2019-01-23T08:28:24.969Z,21.3
2019-01-23T08:29:15.305Z,21.3
2019-01-23T08:30:04.803Z,21.3
2019-01-23T08:30:55.136Z,21.3
2019-01-23T08:31:45.236Z,21.3
2019-01-23T08:32:35.556Z,21.2
2019-01-23T08:33:25.621Z,21.2
2019-01-23T08:34:15.157Z,21.2
2019-01-23T08:35:05.759Z,21.2
2019-01-23T08:35:54.964Z,21.2
2019-01-23T08:36:45.573Z,21.2
2019-01-23T08:37:35.911Z,21.2
2019-01-23T08:38:25.926Z,21.3
2019-01-23T08:39:15.746Z,21.3
2019-01-23T08:40:06.143Z,21.4
2019-01-23T08:40:55.818Z,21.5
2019-01-23T08:41:45.328Z,21.5
2019-01-23T08:42:35.710Z,21.5
2019-01-23T08:43:25.573Z,21.5
2019-01-23T08:44:16.055Z,21.5
2019-01-23T08:45:06.250Z,21.5
2019-01-23T08:45:55.908Z,21.5
2019-01-23T08:46:45.478Z,21.5
2019-01-23T08:47:35.988Z,21.6
2019-01-23T08:48:25.833Z,21.5
2019-01-23T08:49:15.855Z,21.6
2019-01-23T08:50:05.984Z,21.6
2019-01-23T08:50:56.793Z,21.6
2019-01-23T08:51:46.838Z,21.5
2019-01-23T08:52:36.420Z,21.5
2019-01-23T08:53:25.896Z,21.4
2019-01-23T08:54:17.012Z,21.4
2019-01-23T08:55:05.824Z,21.4
2019-01-23T08:56:00.425Z,21.4
2019-01-23T08:56:46.677Z,21.3
2019-01-23T08:57:36.765Z,21.3
2019-01-23T08:58:26.822Z,21.3
2019-01-23T08:59:16.595Z,21.3
2019-01-23T09:00:06.757Z,21.3
2019-01-23T09:00:56.695Z,21.3
2019-01-23T09:01:47.100Z,21.3
2019-01-23T09:02:36.797Z,21.3
2019-01-23T09:03:26.617Z,21.3
2019-01-23T09:04:16.934Z,21.3
2019-01-23T09:05:07.209Z,21.3
2019-01-23T09:05:56.619Z,21.4
2019-01-23T09:06:46.867Z,21.3
2019-01-23T09:07:37.646Z,21.3
2019-01-23T09:08:27.219Z,21.3
2019-01-23T09:09:17.544Z,21.4
2019-01-23T09:10:07.536Z,21.4
2019-01-23T09:10:57.609Z,21.4
2019-01-23T09:11:47.756Z,21.4
2019-01-23T09:12:37.502Z,21.4
2019-01-23T09:13:27.796Z,21.4
2019-01-23T09:14:18.111Z,21.4
2019-01-23T09:15:07.384Z,21.4
2019-01-23T09:15:58.001Z,21.4
2019-01-23T09:16:47.641Z,21.4
2019-01-23T09:17:37.568Z,21.4
2019-01-23T09:18:27.943Z,21.3
2019-01-23T09:19:17.681Z,21.3
2019-01-23T09:20:07.961Z,21.3
2019-01-23T09:20:58.123Z,21.3
2019-01-23T09:21:47.918Z,21.3
2019-01-23T09:22:38.463Z,21.3
2019-01-23T09:23:28.988Z,21.3
2019-01-23T09:24:19.063Z,21.2
2019-01-23T09:25:09.118Z,21.2
2019-01-23T09:25:58.888Z,21.2
2019-01-23T09:26:48.950Z,21.2
2019-01-23T09:27:38.048Z,21.2
2019-01-23T09:28:29.065Z,21.2
2019-01-23T09:29:19.135Z,21.2
2019-01-23T09:30:08.993Z,21.2
2019-01-23T09:31:01.115Z,21.3
2019-01-23T09:31:49.072Z,21.3
2019-01-23T09:32:39.186Z,21.3
2019-01-23T09:33:29.202Z,21.3
2019-01-23T09:34:18.985Z,21.3
2019-01-23T09:35:08.842Z,21.3
2019-01-23T09:35:59.092Z,21.4
2019-01-23T09:36:49.654Z,21.4
2019-01-23T09:37:39.474Z,21.4
2019-01-23T09:38:29.295Z,21.4
2019-01-23T09:39:19.322Z,21.4
2019-01-23T09:40:09.644Z,21.4
2019-01-23T09:40:59.942Z,21.4
2019-01-23T09:41:49.514Z,21.4
2019-01-23T09:42:40.322Z,21.3
2019-01-23T09:43:29.368Z,21.3
2019-01-23T09:44:19.949Z,21.3
2019-01-23T09:45:09.464Z,21.3
2019-01-23T09:46:00.059Z,21.3
2019-01-23T09:46:49.652Z,21.3
2019-01-23T09:47:39.412Z,21.3
2019-01-23T09:48:29.669Z,21.3
2019-01-23T09:49:20.014Z,21.2
2019-01-23T09:50:10.346Z,21.2
2019-01-23T09:51:00.399Z,21.3
2019-01-23T09:51:50.494Z,21.2
2019-01-23T09:52:40.506Z,21.3
2019-01-23T09:53:30.756Z,21.3
2019-01-23T09:54:20.632Z,21.3
2019-01-23T09:55:10.396Z,21.3
2019-01-23T09:56:00.481Z,21.3
2019-01-23T09:56:50.248Z,21.3
2019-01-23T09:57:40.954Z,21.3
2019-01-23T09:58:31.405Z,21.3
2019-01-23T09:59:20.276Z,21.4
2019-01-23T10:00:11.073Z,21.4
2019-01-23T10:01:10.158Z,21.4
2019-01-23T10:01:51.140Z,21.4
2019-01-23T10:02:40.929Z,21.4
2019-01-23T10:03:31.245Z,21.4
2019-01-23T10:04:20.769Z,21.4
2019-01-23T10:05:11.158Z,21.4
2019-01-23T10:07:38.750Z,21.3
2019-01-23T10:08:28.993Z,21.3
2019-01-23T10:09:18.558Z,21.3
2019-01-23T10:10:08.902Z,21.3
2019-01-23T10:10:59.755Z,21.3
2019-01-23T10:11:48.700Z,21.3
2019-01-23T10:12:38.580Z,21.3
2019-01-23T10:13:29.365Z,21.3
2019-01-23T10:14:19.218Z,21.2
2019-01-23T10:15:09.476Z,21.2
2019-01-23T10:15:59.567Z,21.2
2019-01-23T10:16:50.147Z,21.2
2019-01-23T10:17:40.792Z,21.3
2019-01-23T10:18:29.418Z,21.3
2019-01-23T10:19:19.764Z,21.3
2019-01-23T10:20:09.266Z,21.3
2019-01-23T10:20:59.112Z,21.3
2019-01-23T10:21:49.965Z,21.3
2019-01-23T10:22:40.257Z,21.3
2019-01-23T10:23:29.479Z,21.4
2019-01-23T10:24:20.131Z,21.4
2019-01-23T10:25:09.322Z,21.4
2019-01-23T10:25:59.129Z,21.4
2019-01-23T10:26:50.076Z,21.4
2019-01-23T10:27:40.646Z,21.4
2019-01-23T10:28:31.439Z,21.4
2019-01-23T10:29:19.957Z,21.4
2019-01-23T10:30:10.574Z,21.4
2019-01-23T10:31:06.371Z,21.4
2019-01-23T10:31:50.108Z,21.3
2019-01-23T10:32:40.391Z,21.3
2019-01-23T10:33:30.801Z,21.3
2019-01-23T10:34:20.846Z,21.3
2019-01-23T10:35:10.866Z,21.3
2019-01-23T10:36:01.201Z,21.3
2019-01-23T10:36:50.968Z,21.3
2019-01-23T10:37:40.203Z,21.2
2019-01-23T10:38:31.308Z,21.2
2019-01-23T10:39:20.846Z,21.2
2019-01-23T10:40:10.953Z,21.2
2019-01-23T10:41:01.263Z,21.2
2019-01-23T10:41:50.486Z,21.2
2019-01-23T10:42:41.344Z,21.3
2019-01-23T10:43:29.775Z,21.3
2019-01-23T10:44:21.482Z,21.3
2019-01-23T10:45:10.978Z,21.3
2019-01-23T10:46:01.861Z,21.3
2019-01-23T10:46:51.347Z,21.3
2019-01-23T10:47:41.420Z,21.4
2019-01-23T10:48:38.430Z,21.4
2019-01-23T10:49:21.327Z,21.4
2019-01-23T10:50:11.330Z,21.4
2019-01-23T10:51:02.517Z,21.4
2019-01-23T10:51:51.737Z,21.4
2019-01-23T10:52:42.028Z,21.4
2019-01-23T10:53:31.811Z,21.4
2019-01-23T10:54:22.487Z,21.4
2019-01-23T10:55:11.687Z,21.3
2019-01-23T10:56:02.567Z,21.3
2019-01-23T10:56:52.077Z,21.3
2019-01-23T10:57:42.665Z,21.3
2019-01-23T10:58:31.399Z,21.3
2019-01-23T10:59:23.047Z,21.3
2019-01-23T11:00:12.550Z,21.3
2019-01-23T11:01:03.192Z,21.3
2019-01-23T11:01:52.407Z,21.2
2019-01-23T11:02:42.733Z,21.2
2019-01-23T11:03:32.814Z,21.2
2019-01-23T11:04:23.239Z,21.2
2019-01-23T11:05:13.030Z,21.2
2019-01-23T11:06:02.946Z,21.2
2019-01-23T11:06:52.474Z,21.2
2019-01-23T11:07:43.341Z,21.3
2019-01-23T11:08:32.821Z,21.3
2019-01-23T11:09:24.927Z,21.3
2019-01-23T11:10:13.287Z,21.3
2019-01-23T11:11:03.933Z,21.3
2019-01-23T11:11:53.466Z,21.3
2019-01-23T11:12:42.909Z,21.4
2019-01-23T11:13:32.644Z,21.4
2019-01-23T11:14:23.308Z,21.4
2019-01-23T11:15:13.681Z,21.4
2019-01-23T11:16:04.928Z,21.4
2019-01-23T11:16:53.709Z,21.4
2019-01-23T11:17:43.811Z,21.4
2019-01-23T11:18:33.867Z,21.4
2019-01-23T11:19:24.551Z,21.3
2019-01-23T11:20:14.212Z,21.3
2019-01-23T11:21:04.005Z,21.3
2019-01-23T11:21:54.113Z,21.3
2019-01-23T11:22:44.443Z,21.3
2019-01-23T11:23:33.943Z,21.3
2019-01-23T11:24:24.005Z,21.3
2019-01-23T11:25:13.796Z,21.3
2019-01-23T11:26:03.618Z,21.2
2019-01-23T11:26:54.290Z,21.2
2019-01-23T11:27:43.985Z,21.2
2019-01-23T11:28:34.020Z,21.2
2019-01-23T11:29:24.279Z,21.2
2019-01-23T11:30:14.965Z,21.2
2019-01-23T11:31:04.808Z,21.3
2019-01-23T11:31:55.017Z,21.3
2019-01-23T11:32:44.272Z,21.3
2019-01-23T11:33:34.880Z,21.3
2019-01-23T11:34:24.927Z,21.3
2019-01-23T11:35:15.067Z,21.3
2019-01-23T11:36:05.009Z,21.4
2019-01-23T11:36:54.252Z,21.4
2019-01-23T11:37:45.187Z,21.4
2019-01-23T11:38:35.232Z,21.4
2019-01-23T11:39:26.002Z,21.4
2019-01-23T11:40:14.755Z,21.4
2019-01-23T11:41:05.096Z,21.4
2019-01-23T11:41:54.872Z,21.4
2019-01-23T11:42:44.929Z,21.4
2019-01-23T11:43:35.806Z,21.4
2019-01-23T11:44:25.886Z,21.3
2019-01-23T11:45:15.379Z,21.3
2019-01-23T11:46:06.039Z,21.3
2019-01-23T11:46:55.776Z,21.3
2019-01-23T11:47:44.954Z,21.3
2019-01-23T11:48:36.141Z,21.3
2019-01-23T11:49:25.934Z,21.3
2019-01-23T11:50:24.641Z,21.3
2019-01-23T11:51:06.788Z,21.3
2019-01-23T11:51:56.116Z,21.2
2019-01-23T11:52:45.644Z,21.2
2019-01-23T11:53:35.941Z,21.2
2019-01-23T11:54:26.464Z,21.2
2019-01-23T11:55:16.658Z,21.3
2019-01-23T11:56:06.148Z,21.3
2019-01-23T11:56:56.465Z,21.3